createdAt,value
2023-03-06T00:00:33.061Z,14.63
2023-03-06T00:02:59.856Z,15.40
2023-03-06T00:05:26.941Z,15.20
2023-03-06T00:07:53.747Z,14.03
2023-03-06T00:10:25.928Z,15.63
2023-03-06T00:12:57.867Z,14.80
2023-03-06T00:15:26.063Z,15.50
2023-03-06T00:17:53.311Z,15.33
2023-03-06T00:20:21.283Z,14.57
2023-03-06T00:22:49.013Z,14.90
2023-03-06T00:25:18.385Z,16.13
2023-03-06T00:27:45.508Z,14.50
2023-03-06T00:30:15.103Z,15.93
2023-03-06T00:32:42.493Z,15.83
2023-03-06T00:35:10.291Z,15.90
2023-03-06T00:37:37.322Z,15.23
2023-03-06T00:40:13.021Z,14.50
2023-03-06T00:42:39.793Z,16.10
2023-03-06T00:45:07.221Z,15.80
2023-03-06T00:47:34.310Z,16.03
2023-03-06T00:50:01.198Z,16.73
2023-03-06T00:52:28.043Z,15.97
2023-03-06T00:54:57.900Z,15.73
2023-03-06T00:57:25.342Z,16.07
2023-03-06T00:59:52.098Z,18.23
2023-03-06T01:02:18.878Z,14.83
2023-03-06T01:04:45.979Z,15.90
2023-03-06T01:07:12.776Z,14.40
2023-03-06T01:09:39.648Z,13.80
2023-03-06T01:12:06.683Z,15.43
2023-03-06T01:14:33.750Z,12.70
2023-03-06T01:17:00.533Z,14.13
2023-03-06T01:19:27.412Z,12.90
2023-03-06T01:21:54.240Z,12.63
2023-03-06T01:24:21.092Z,12.27
2023-03-06T01:26:48.014Z,11.27
2023-03-06T01:29:14.687Z,13.23
2023-03-06T01:31:41.418Z,11.93
2023-03-06T01:34:08.360Z,12.67
2023-03-06T01:36:35.062Z,11.43
2023-03-06T01:39:01.906Z,12.07
2023-03-06T01:41:28.595Z,12.73
2023-03-06T01:43:55.449Z,12.73
2023-03-06T01:46:42.360Z,13.37
2023-03-06T01:49:30.927Z,12.83
2023-03-06T01:52:15.398Z,13.53
2023-03-06T01:54:47.351Z,13.40
2023-03-06T01:57:28.773Z,13.83
2023-03-06T02:00:07.006Z,13.37
2023-03-06T02:02:33.924Z,13.23
2023-03-06T02:05:02.668Z,13.30
2023-03-06T02:07:30.357Z,14.97
2023-03-06T02:09:57.267Z,13.37
2023-03-06T02:12:24.374Z,14.87
2023-03-06T02:14:52.145Z,15.50
2023-03-06T02:17:20.927Z,15.67
2023-03-06T02:20:05.914Z,15.47
2023-03-06T02:22:50.118Z,15.13
2023-03-06T02:25:38.696Z,14.97
2023-03-06T02:28:08.549Z,14.20
2023-03-06T02:30:36.391Z,15.13
2023-03-06T02:33:03.989Z,14.93
2023-03-06T02:35:33.961Z,15.43
2023-03-06T02:38:05.965Z,15.33
2023-03-06T02:40:32.692Z,14.10
2023-03-06T02:42:59.533Z,13.83
2023-03-06T02:45:37.670Z,15.87
2023-03-06T02:48:05.218Z,14.63
2023-03-06T02:50:32.554Z,13.67
2023-03-06T02:52:59.422Z,14.03
2023-03-06T02:55:26.292Z,14.30
2023-03-06T02:57:53.223Z,14.10
2023-03-06T03:00:20.348Z,13.40
2023-03-06T03:02:47.008Z,13.83
2023-03-06T03:05:14.003Z,13.00
2023-03-06T03:07:41.148Z,14.50
2023-03-06T03:10:08.488Z,13.20
2023-03-06T03:12:35.188Z,12.43
2023-03-06T03:15:02.018Z,13.37
2023-03-06T03:17:28.688Z,14.13
2023-03-06T03:19:55.422Z,12.43
2023-03-06T03:22:22.210Z,12.20
2023-03-06T03:24:48.962Z,11.13
2023-03-06T03:27:15.871Z,12.90
2023-03-06T03:29:42.917Z,12.03
2023-03-06T03:32:10.641Z,11.83
2023-03-06T03:34:37.385Z,11.90
2023-03-06T03:37:04.213Z,12.10
2023-03-06T03:39:30.966Z,11.30
2023-03-06T03:41:57.690Z,11.87
2023-03-06T03:44:24.517Z,12.40
2023-03-06T03:46:51.583Z,12.57
2023-03-06T03:49:18.526Z,12.13
2023-03-06T03:51:45.239Z,11.87
2023-03-06T03:54:12.038Z,11.90
2023-03-06T03:56:40.697Z,11.87
2023-03-06T03:59:08.247Z,10.83
2023-03-06T04:01:35.020Z,11.90
2023-03-06T04:04:01.819Z,11.60
2023-03-06T04:06:29.178Z,12.07
2023-03-06T04:08:56.076Z,12.10
2023-03-06T04:11:22.815Z,11.43
2023-03-06T04:13:49.975Z,12.53
2023-03-06T04:16:16.983Z,11.20
2023-03-06T04:18:43.685Z,11.83
2023-03-06T04:21:10.551Z,12.33
2023-03-06T04:23:37.413Z,12.37
2023-03-06T04:26:04.630Z,12.20
2023-03-06T04:28:31.617Z,12.00
2023-03-06T04:30:58.427Z,12.77
2023-03-06T04:33:25.086Z,11.10
2023-03-06T04:35:51.888Z,11.33
2023-03-06T04:38:18.813Z,12.47
2023-03-06T04:40:45.808Z,12.10
2023-03-06T04:43:12.743Z,12.10
2023-03-06T04:45:39.443Z,13.13
2023-03-06T04:48:06.495Z,12.73
2023-03-06T04:50:33.462Z,13.10
2023-03-06T04:53:01.922Z,12.60
2023-03-06T04:55:29.512Z,11.63
2023-03-06T04:57:57.760Z,11.87
2023-03-06T05:00:30.531Z,12.20
2023-03-06T05:03:01.512Z,11.93
2023-03-06T05:05:28.343Z,13.23
2023-03-06T05:07:55.438Z,12.53
2023-03-06T05:10:22.325Z,12.10
2023-03-06T05:12:49.037Z,11.33
2023-03-06T05:15:16.537Z,13.07
2023-03-06T05:17:43.875Z,11.87
2023-03-06T05:20:12.319Z,11.83
2023-03-06T05:22:40.133Z,11.40
2023-03-06T05:25:08.000Z,13.10
2023-03-06T05:27:36.184Z,13.33
2023-03-06T05:30:03.753Z,12.70
2023-03-06T05:32:30.776Z,11.90
2023-03-06T05:34:57.838Z,11.57
2023-03-06T05:37:24.696Z,12.37
2023-03-06T05:39:51.646Z,12.47
2023-03-06T05:42:18.675Z,12.80
2023-03-06T05:44:45.686Z,12.70
2023-03-06T05:47:12.572Z,12.70
2023-03-06T05:49:39.669Z,12.83
2023-03-06T05:52:07.550Z,11.67
2023-03-06T05:54:35.538Z,11.77
2023-03-06T05:57:04.949Z,11.90
2023-03-06T05:59:33.205Z,12.33
2023-03-06T06:02:01.174Z,12.83
2023-03-06T06:04:28.014Z,12.10
2023-03-06T06:06:57.680Z,12.87
2023-03-06T06:09:25.507Z,14.93
2023-03-06T06:11:58.626Z,11.53
2023-03-06T06:14:25.739Z,12.67
2023-03-06T06:16:52.810Z,12.73
2023-03-06T06:19:20.927Z,10.50
2023-03-06T06:21:50.347Z,12.23
2023-03-06T06:24:19.167Z,11.93
2023-03-06T06:26:46.201Z,12.83
2023-03-06T06:29:13.564Z,12.50
2023-03-06T06:31:41.120Z,12.27
2023-03-06T06:34:09.729Z,11.67
2023-03-06T06:36:36.909Z,12.90
2023-03-06T06:39:04.005Z,12.90
2023-03-06T06:41:51.044Z,12.10
2023-03-06T06:44:18.675Z,12.47
2023-03-06T06:49:33.121Z,13.07
2023-03-06T06:52:00.004Z,13.27
2023-03-06T06:54:27.231Z,12.90
2023-03-06T06:56:54.020Z,12.67
2023-03-06T06:59:23.593Z,11.57
2023-03-06T07:01:51.585Z,11.63
2023-03-06T07:04:19.173Z,11.97
2023-03-06T07:06:46.684Z,12.00
2023-03-06T07:09:14.112Z,13.87
2023-03-06T07:11:41.564Z,12.97
2023-03-06T07:14:08.337Z,11.63
2023-03-06T07:16:35.204Z,12.90
2023-03-06T07:19:02.491Z,12.20
2023-03-06T07:21:29.955Z,13.33
2023-03-06T07:23:57.635Z,12.83
2023-03-06T07:26:25.869Z,12.37
2023-03-06T07:28:53.889Z,13.57
2023-03-06T07:31:23.262Z,13.07
2023-03-06T07:33:51.719Z,14.37
2023-03-06T07:36:18.470Z,13.73
2023-03-06T07:38:45.511Z,13.53
2023-03-06T07:41:13.784Z,13.90
2023-03-06T07:43:43.607Z,12.83
2023-03-06T07:46:10.791Z,12.83
2023-03-06T07:48:38.982Z,13.57
2023-03-06T07:51:10.374Z,14.77
2023-03-06T07:53:37.277Z,13.33
2023-03-06T07:56:09.297Z,13.20
2023-03-06T07:58:38.203Z,15.17
2023-03-06T08:01:06.531Z,15.10
2023-03-06T08:03:33.511Z,13.97
2023-03-06T08:06:10.683Z,12.90
2023-03-06T08:08:42.135Z,13.43
2023-03-06T08:11:10.462Z,12.47
2023-03-06T08:13:38.659Z,12.60
2023-03-06T08:16:06.220Z,13.13
2023-03-06T08:18:33.562Z,12.23
2023-03-06T08:21:15.194Z,12.57
2023-03-06T08:23:42.831Z,11.83
2023-03-06T08:26:14.471Z,10.70
2023-03-06T08:28:42.189Z,12.17
2023-03-06T08:31:34.867Z,12.10
2023-03-06T08:34:04.984Z,10.90
2023-03-06T08:36:31.936Z,12.90
2023-03-06T08:38:59.472Z,13.93
2023-03-06T08:41:26.952Z,12.17
2023-03-06T08:43:54.069Z,11.77
2023-03-06T08:46:23.502Z,12.37
2023-03-06T08:48:50.472Z,11.70
2023-03-06T08:51:18.843Z,11.23
2023-03-06T08:53:45.893Z,12.60
2023-03-06T08:56:21.827Z,11.40
2023-03-06T08:58:49.100Z,10.80
2023-03-06T09:01:20.180Z,10.90
2023-03-06T09:03:47.094Z,11.80
2023-03-06T09:06:14.607Z,14.70
2023-03-06T09:08:43.955Z,12.90
2023-03-06T09:11:12.082Z,11.63
2023-03-06T09:13:39.146Z,12.23
2023-03-06T09:16:06.330Z,10.83
2023-03-06T09:18:33.296Z,10.80
2023-03-06T09:21:00.333Z,11.87
2023-03-06T09:23:27.133Z,11.00
2023-03-06T09:25:55.849Z,10.97
2023-03-06T09:28:23.719Z,10.30
2023-03-06T09:30:51.096Z,10.87
2023-03-06T09:33:18.754Z,9.77
2023-03-06T09:35:51.927Z,10.30
2023-03-06T09:38:20.265Z,9.83
2023-03-06T09:41:00.649Z,10.50
2023-03-06T09:43:40.026Z,10.23
2023-03-06T09:46:20.384Z,10.43
2023-03-06T09:48:47.019Z,10.30
2023-03-06T09:51:17.846Z,9.37
2023-03-06T09:54:10.587Z,10.37
2023-03-06T09:56:37.590Z,9.40
2023-03-06T09:59:23.431Z,8.97
2023-03-06T10:02:08.737Z,9.67
2023-03-06T10:04:42.325Z,8.73
2023-03-06T10:07:21.878Z,8.73
2023-03-06T10:09:56.580Z,7.93
2023-03-06T10:12:26.567Z,8.23
2023-03-06T10:15:10.960Z,9.67
2023-03-06T10:17:41.751Z,9.07
2023-03-06T10:20:24.286Z,9.37
2023-03-06T10:23:14.763Z,9.33
2023-03-06T10:25:55.770Z,8.97
2023-03-06T10:28:35.534Z,9.63
2023-03-06T10:31:17.965Z,9.70
2023-03-06T10:34:08.881Z,10.80
2023-03-06T10:36:35.859Z,10.07
2023-03-06T10:39:14.110Z,8.80
2023-03-06T10:41:40.875Z,8.07
2023-03-06T10:44:09.512Z,7.83
2023-03-06T10:46:44.499Z,8.17
2023-03-06T10:49:57.049Z,7.50
2023-03-06T10:52:30.089Z,7.33
2023-03-06T10:55:25.147Z,6.47
2023-03-06T10:57:52.424Z,7.03
2023-03-06T11:00:25.504Z,6.63
2023-03-06T11:03:18.662Z,7.07
2023-03-06T11:06:02.287Z,6.20
2023-03-06T11:08:29.791Z,7.00
2023-03-06T11:11:03.953Z,7.60
2023-03-06T11:13:34.610Z,7.17
2023-03-06T11:16:27.290Z,7.33
2023-03-06T11:19:04.044Z,6.87
2023-03-06T11:21:33.340Z,6.77
2023-03-06T11:24:08.768Z,7.07
2023-03-06T11:26:55.699Z,6.77
2023-03-06T11:29:45.479Z,6.80
2023-03-06T11:32:27.810Z,6.83
2023-03-06T11:35:07.118Z,7.40
2023-03-06T11:37:51.622Z,7.50
2023-03-06T11:40:42.608Z,7.53
2023-03-06T11:43:30.998Z,7.00
2023-03-06T11:46:26.841Z,8.53
2023-03-06T11:49:04.877Z,7.50
2023-03-06T11:51:35.910Z,7.10
2023-03-06T11:54:03.130Z,7.20
2023-03-06T11:56:39.028Z,7.67
2023-03-06T11:59:56.735Z,8.90
2023-03-06T12:03:01.915Z,8.93
2023-03-06T12:05:46.730Z,9.13
2023-03-06T12:08:39.815Z,8.47
2023-03-06T12:11:19.690Z,9.13
2023-03-06T12:14:02.113Z,8.77
2023-03-06T12:16:36.637Z,8.53
2023-03-06T12:19:18.615Z,8.67
2023-03-06T12:21:57.972Z,9.27
2023-03-06T12:24:30.552Z,8.03
2023-03-06T12:27:17.340Z,8.33
2023-03-06T12:30:21.768Z,10.33
2023-03-06T12:33:30.596Z,8.80
2023-03-06T12:36:20.074Z,9.47
2023-03-06T12:39:00.041Z,8.70
2023-03-06T12:41:45.611Z,8.60
2023-03-06T12:44:26.403Z,10.13
2023-03-06T12:47:00.660Z,9.67
2023-03-06T12:49:32.867Z,9.00
2023-03-06T12:52:02.426Z,7.87
2023-03-06T12:54:33.678Z,9.17
2023-03-06T12:57:01.186Z,8.00
2023-03-06T12:59:47.157Z,8.00
2023-03-06T13:02:14.113Z,8.20
2023-03-06T13:05:05.134Z,8.67
2023-03-06T13:07:52.576Z,8.23
2023-03-06T13:10:27.779Z,7.90
2023-03-06T13:13:24.803Z,7.50
2023-03-06T13:16:03.779Z,8.03
2023-03-06T13:18:33.720Z,7.73
2023-03-06T13:21:00.544Z,8.03
2023-03-06T13:23:30.805Z,7.73
2023-03-06T13:26:25.073Z,7.73
2023-03-06T13:28:54.322Z,7.57
2023-03-06T13:31:34.394Z,7.63
2023-03-06T13:34:38.386Z,8.27
2023-03-06T13:37:17.111Z,7.90
2023-03-06T13:39:55.849Z,7.03
2023-03-06T13:43:09.284Z,7.20
2023-03-06T13:45:43.809Z,6.73
2023-03-06T13:48:44.729Z,7.57
2023-03-06T13:51:23.144Z,7.57
2023-03-06T13:54:02.128Z,6.70
2023-03-06T13:57:21.019Z,7.47
2023-03-06T14:00:23.751Z,5.87
2023-03-06T14:03:11.735Z,6.07
2023-03-06T14:05:50.371Z,6.33
2023-03-06T14:08:23.093Z,5.90
2023-03-06T14:11:17.395Z,6.00
2023-03-06T14:13:50.645Z,6.70
2023-03-06T14:16:24.039Z,6.20
2023-03-06T14:18:56.842Z,7.30
2023-03-06T14:21:39.570Z,7.03
2023-03-06T14:24:06.668Z,6.53
2023-03-06T14:26:40.487Z,6.20
2023-03-06T14:29:20.337Z,6.77
2023-03-06T14:31:50.807Z,6.20
2023-03-06T14:34:31.122Z,7.40
2023-03-06T14:37:03.503Z,7.03
2023-03-06T14:39:34.395Z,7.13
2023-03-06T14:42:20.824Z,6.40
2023-03-06T14:44:49.740Z,6.50
2023-03-06T14:47:34.303Z,6.97
2023-03-06T14:50:26.632Z,6.70
2023-03-06T14:52:58.018Z,6.77
2023-03-06T14:55:27.469Z,7.07
2023-03-06T14:57:58.620Z,7.40
2023-03-06T15:00:44.273Z,7.93
2023-03-06T15:03:21.729Z,7.83
2023-03-06T15:05:49.937Z,7.23
2023-03-06T15:08:26.545Z,7.13
2023-03-06T15:11:02.153Z,7.93
2023-03-06T15:13:31.207Z,8.00
2023-03-06T15:16:22.858Z,8.23
2023-03-06T15:19:03.782Z,7.70
2023-03-06T15:21:38.041Z,8.10
2023-03-06T15:24:33.229Z,7.23
2023-03-06T15:27:05.571Z,6.83
2023-03-06T15:29:32.894Z,8.37
2023-03-06T15:32:24.737Z,7.70
2023-03-06T15:35:25.879Z,8.70
2023-03-06T15:37:53.073Z,9.53
2023-03-06T15:40:22.307Z,9.63
2023-03-06T15:42:52.315Z,9.27
2023-03-06T15:45:21.818Z,8.40
2023-03-06T15:47:50.349Z,9.03
2023-03-06T15:50:20.538Z,7.97
2023-03-06T15:52:48.499Z,10.73
2023-03-06T15:55:17.504Z,7.63
2023-03-06T15:58:02.636Z,8.83
2023-03-06T16:00:34.157Z,7.87
2023-03-06T16:03:01.922Z,8.90
2023-03-06T16:05:29.912Z,7.93
2023-03-06T16:07:57.054Z,6.53
2023-03-06T16:10:27.722Z,7.37
2023-03-06T16:12:57.509Z,7.03
2023-03-06T16:15:29.665Z,7.17
2023-03-06T16:17:57.595Z,8.33
2023-03-06T16:20:27.182Z,8.27
2023-03-06T16:22:54.872Z,8.40
2023-03-06T16:25:24.140Z,7.77
2023-03-06T16:28:01.817Z,7.33
2023-03-06T16:30:32.056Z,7.40
2023-03-06T16:32:59.490Z,8.53
2023-03-06T16:35:27.160Z,8.07
2023-03-06T16:37:54.220Z,7.37
2023-03-06T16:40:37.467Z,6.87
2023-03-06T16:43:05.461Z,6.80
2023-03-06T16:45:37.227Z,7.43
2023-03-06T16:48:04.642Z,7.03
2023-03-06T16:50:36.312Z,6.90
2023-03-06T16:53:04.265Z,7.90
2023-03-06T16:55:31.205Z,6.60
2023-03-06T16:57:57.919Z,11.37
2023-03-06T17:00:24.990Z,7.20
2023-03-06T17:02:52.416Z,7.60
2023-03-06T17:05:20.148Z,6.50
2023-03-06T17:07:47.510Z,6.40
2023-03-06T17:10:18.730Z,6.30
2023-03-06T17:12:45.631Z,6.10
2023-03-06T17:15:14.020Z,6.30
2023-03-06T17:17:40.708Z,5.80
2023-03-06T17:20:08.379Z,6.13
2023-03-06T17:22:36.498Z,6.17
2023-03-06T17:25:06.700Z,6.50
2023-03-06T17:27:34.497Z,6.60
2023-03-06T17:30:05.920Z,6.53
2023-03-06T17:32:32.908Z,6.50
2023-03-06T17:34:59.947Z,5.83
2023-03-06T17:37:26.651Z,7.33
2023-03-06T17:40:02.165Z,6.70
2023-03-06T17:42:28.855Z,7.93
2023-03-06T17:44:57.350Z,7.97
2023-03-06T17:47:24.200Z,6.80
2023-03-06T17:49:50.876Z,6.93
2023-03-06T17:52:17.564Z,6.40
2023-03-06T17:54:44.306Z,5.97
2023-03-06T17:57:10.987Z,6.60
2023-03-06T17:59:37.797Z,6.97
2023-03-06T18:02:06.409Z,6.70
2023-03-06T18:04:33.293Z,6.33
2023-03-06T18:07:00.071Z,6.50
2023-03-06T18:09:27.055Z,6.40
2023-03-06T18:11:53.888Z,6.20
2023-03-06T18:14:20.828Z,6.83
2023-03-06T18:16:48.009Z,6.53
2023-03-06T18:19:16.881Z,6.53
2023-03-06T18:21:43.703Z,7.27
2023-03-06T18:24:11.410Z,7.13
2023-03-06T18:26:40.049Z,8.27
2023-03-06T18:29:06.790Z,7.10
2023-03-06T18:31:38.796Z,8.10
2023-03-06T18:34:09.633Z,8.33
2023-03-06T18:36:37.536Z,8.03
2023-03-06T18:39:08.791Z,8.00
2023-03-06T18:41:36.040Z,8.07
2023-03-06T18:44:02.832Z,7.73
2023-03-06T18:46:32.491Z,8.63
2023-03-06T18:48:59.653Z,7.63
2023-03-06T18:51:27.120Z,7.80
2023-03-06T18:53:57.670Z,8.00
2023-03-06T18:56:24.777Z,8.30
2023-03-06T18:58:51.727Z,8.43
2023-03-06T19:01:18.871Z,8.03
2023-03-06T19:03:45.978Z,8.60
2023-03-06T19:06:17.002Z,9.33
2023-03-06T19:08:44.262Z,8.83
2023-03-06T19:11:13.699Z,9.00
2023-03-06T19:13:40.789Z,8.57
2023-03-06T19:16:08.434Z,9.10
2023-03-06T19:18:35.298Z,9.33
2023-03-06T19:21:16.976Z,10.10
2023-03-06T19:23:43.878Z,8.80
2023-03-06T19:26:11.131Z,8.93
2023-03-06T19:28:39.750Z,8.67
2023-03-06T19:31:14.820Z,9.60
2023-03-06T19:33:42.715Z,9.07
2023-03-06T19:36:12.199Z,9.80
2023-03-06T19:38:39.382Z,8.67
2023-03-06T19:41:11.793Z,9.50
2023-03-06T19:43:38.892Z,8.87
2023-03-06T19:46:05.893Z,11.23
2023-03-06T19:48:32.615Z,10.93
2023-03-06T19:51:04.345Z,10.20
2023-03-06T19:53:31.790Z,9.93
2023-03-06T19:56:18.555Z,9.07
2023-03-06T19:58:45.433Z,9.13
2023-03-06T20:01:17.606Z,9.50
2023-03-06T20:03:44.699Z,9.77
2023-03-06T20:06:17.480Z,9.33
2023-03-06T20:08:45.233Z,9.63
2023-03-06T20:11:30.981Z,9.17
2023-03-06T20:13:59.646Z,9.70
2023-03-06T20:16:30.430Z,9.93
2023-03-06T20:18:59.016Z,9.90
2023-03-06T20:21:27.575Z,8.93
2023-03-06T20:23:56.981Z,9.67
2023-03-06T20:26:25.707Z,9.43
2023-03-06T20:28:52.771Z,10.70
2023-03-06T20:31:22.059Z,9.77
2023-03-06T20:33:51.554Z,11.00
2023-03-06T20:36:21.950Z,10.80
2023-03-06T20:38:49.001Z,14.43
2023-03-06T20:41:21.477Z,10.50
2023-03-06T20:43:49.057Z,9.63
2023-03-06T20:46:20.458Z,9.70
2023-03-06T20:48:52.072Z,10.13
2023-03-06T20:51:20.008Z,9.57
2023-03-06T20:53:48.904Z,10.60
2023-03-06T20:56:18.300Z,9.73
2023-03-06T20:58:45.344Z,11.10
2023-03-06T21:01:45.426Z,9.57
2023-03-06T21:04:14.334Z,11.10
2023-03-06T21:06:45.302Z,9.80
2023-03-06T21:09:13.791Z,8.90
2023-03-06T21:11:40.602Z,9.50
2023-03-06T21:14:07.542Z,9.67
2023-03-06T21:16:34.483Z,10.77
2023-03-06T21:19:01.930Z,10.80
2023-03-06T21:21:31.010Z,10.00
2023-03-06T21:23:57.885Z,10.27
2023-03-06T21:26:28.065Z,9.13
2023-03-06T21:28:57.069Z,9.40
2023-03-06T21:31:23.941Z,9.60
2023-03-06T21:33:51.396Z,9.37
2023-03-06T21:36:21.353Z,8.73
2023-03-06T21:38:49.524Z,9.47
2023-03-06T21:41:19.351Z,9.20
2023-03-06T21:43:46.213Z,10.07
2023-03-06T21:46:13.592Z,9.37
2023-03-06T21:48:40.379Z,8.63
2023-03-06T21:51:12.606Z,9.50
2023-03-06T21:53:42.874Z,8.70
2023-03-06T21:56:11.015Z,9.63
2023-03-06T21:58:38.503Z,9.07
2023-03-06T22:01:10.029Z,8.53
2023-03-06T22:03:36.823Z,9.30
2023-03-06T22:06:15.756Z,9.33
2023-03-06T22:08:43.446Z,9.20
2023-03-06T22:11:13.051Z,9.13
2023-03-06T22:13:39.938Z,9.40
2023-03-06T22:16:07.134Z,9.40
2023-03-06T22:18:34.543Z,9.50
2023-03-06T22:21:09.402Z,9.27
2023-03-06T22:23:36.702Z,9.73
2023-03-06T22:26:05.607Z,9.60
2023-03-06T22:28:33.011Z,8.70
2023-03-06T22:31:05.436Z,9.03
2023-03-06T22:33:32.296Z,9.17
2023-03-06T22:36:06.201Z,9.20
2023-03-06T22:38:35.771Z,9.37
2023-03-06T22:41:02.755Z,9.73
2023-03-06T22:43:29.599Z,9.70
2023-03-06T22:46:04.751Z,9.40
2023-03-06T22:48:32.119Z,9.53
2023-03-06T22:51:03.568Z,8.93
2023-03-06T22:53:30.249Z,9.77
2023-03-06T22:56:01.290Z,9.37
2023-03-06T22:58:34.197Z,8.73
2023-03-06T23:01:09.985Z,9.23
2023-03-06T23:03:38.431Z,9.50
2023-03-06T23:06:20.485Z,10.13
2023-03-06T23:08:53.258Z,8.73
2023-03-06T23:11:21.042Z,9.50
2023-03-06T23:13:47.756Z,9.30
2023-03-06T23:16:14.683Z,9.30
2023-03-06T23:18:41.693Z,10.03
2023-03-06T23:21:10.960Z,9.57
2023-03-06T23:23:38.397Z,9.20
2023-03-06T23:26:07.447Z,9.23
2023-03-06T23:28:34.986Z,9.47
2023-03-06T23:31:07.293Z,9.27
2023-03-06T23:33:34.216Z,9.73
2023-03-06T23:36:05.877Z,9.50
2023-03-06T23:38:32.932Z,9.33
2023-03-06T23:41:04.309Z,8.77
2023-03-06T23:43:31.691Z,9.50
2023-03-06T23:45:59.172Z,9.93
2023-03-06T23:48:27.163Z,9.60
2023-03-06T23:50:53.945Z,9.63
2023-03-06T23:53:20.867Z,8.73
2023-03-06T23:55:50.136Z,9.40
2023-03-06T23:58:17.931Z,9.53
